sensor_id;sensor_type;location;lat;lon;timestamp;temperature;humidity
23471;DHT22;11908;50.806;4.424;2023-03-13T00:03:47;11.10;99.90
23471;DHT22;11908;50.806;4.424;2023-03-13T00:06:13;11.10;99.90
23471;DHT22;11908;50.806;4.424;2023-03-13T00:08:39;11.10;99.90
23471;DHT22;11908;50.806;4.424;2023-03-13T00:11:07;11.10;99.90
23471;DHT22;11908;50.806;4.424;2023-03-13T00:13:33;11.10;99.90
23471;DHT22;11908;50.806;4.424;2023-03-13T00:16:00;11.20;99.90
23471;DHT22;11908;50.806;4.424;2023-03-13T00:18:26;11.20;99.90
23471;DHT22;11908;50.806;4.424;2023-03-13T00:21:19;11.20;99.90
23471;DHT22;11908;50.806;4.424;2023-03-13T00:23:46;11.30;99.90
23471;DHT22;11908;50.806;4.424;2023-03-13T00:26:19;11.20;99.90
23471;DHT22;11908;50.806;4.424;2023-03-13T00:28:45;11.20;99.90
23471;DHT22;11908;50.806;4.424;2023-03-13T00:31:16;11.30;99.90
23471;DHT22;11908;50.806;4.424;2023-03-13T00:33:44;11.20;99.90
23471;DHT22;11908;50.806;4.424;2023-03-13T00:36:15;11.20;99.90
23471;DHT22;11908;50.806;4.424;2023-03-13T00:38:41;11.10;99.90
23471;DHT22;11908;50.806;4.424;2023-03-13T00:41:09;11.10;99.90
23471;DHT22;11908;50.806;4.424;2023-03-13T00:43:39;11.10;99.90
23471;DHT22;11908;50.806;4.424;2023-03-13T00:46:05;11.10;99.90
23471;DHT22;11908;50.806;4.424;2023-03-13T00:48:31;11.10;99.90
23471;DHT22;11908;50.806;4.424;2023-03-13T00:50:58;11.20;99.90
23471;DHT22;11908;50.806;4.424;2023-03-13T00:53:23;11.10;99.90
23471;DHT22;11908;50.806;4.424;2023-03-13T00:55:54;11.20;99.90
23471;DHT22;11908;50.806;4.424;2023-03-13T00:58:36;11.10;99.90
23471;DHT22;11908;50.806;4.424;2023-03-13T01:01:12;11.20;99.90
23471;DHT22;11908;50.806;4.424;2023-03-13T01:03:40;11.20;99.90
23471;DHT22;11908;50.806;4.424;2023-03-13T01:06:08;11.20;99.90
23471;DHT22;11908;50.806;4.424;2023-03-13T01:08:34;11.20;99.90
23471;DHT22;11908;50.806;4.424;2023-03-13T01:11:05;11.20;99.90
23471;DHT22;11908;50.806;4.424;2023-03-13T01:13:31;11.20;99.90
23471;DHT22;11908;50.806;4.424;2023-03-13T01:16:05;11.20;99.90
23471;DHT22;11908;50.806;4.424;2023-03-13T01:18:32;11.30;99.90
23471;DHT22;11908;50.806;4.424;2023-03-13T01:20:59;11.30;99.90
23471;DHT22;11908;50.806;4.424;2023-03-13T01:23:26;11.30;99.90
23471;DHT22;11908;50.806;4.424;2023-03-13T01:25:53;11.40;99.90
23471;DHT22;11908;50.806;4.424;2023-03-13T01:28:19;11.40;99.90
23471;DHT22;11908;50.806;4.424;2023-03-13T01:30:45;11.50;99.90
23471;DHT22;11908;50.806;4.424;2023-03-13T01:33:10;11.50;99.90
23471;DHT22;11908;50.806;4.424;2023-03-13T01:35:36;11.50;99.90
23471;DHT22;11908;50.806;4.424;2023-03-13T01:38:02;11.50;99.90
23471;DHT22;11908;50.806;4.424;2023-03-13T01:40:28;11.50;99.90
23471;DHT22;11908;50.806;4.424;2023-03-13T01:42:56;11.60;99.90
23471;DHT22;11908;50.806;4.424;2023-03-13T01:48:39;11.60;99.90
23471;DHT22;11908;50.806;4.424;2023-03-13T01:51:17;11.60;99.90
23471;DHT22;11908;50.806;4.424;2023-03-13T01:53:48;11.60;99.90
23471;DHT22;11908;50.806;4.424;2023-03-13T01:56:24;11.60;99.90
23471;DHT22;11908;50.806;4.424;2023-03-13T01:58:52;11.70;99.90
23471;DHT22;11908;50.806;4.424;2023-03-13T02:04:19;11.70;99.90
23471;DHT22;11908;50.806;4.424;2023-03-13T02:06:48;11.70;99.90
23471;DHT22;11908;50.806;4.424;2023-03-13T02:09:18;11.70;99.90
23471;DHT22;11908;50.806;4.424;2023-03-13T02:11:54;11.80;99.90
23471;DHT22;11908;50.806;4.424;2023-03-13T02:14:23;11.80;99.90
23471;DHT22;11908;50.806;4.424;2023-03-13T02:16:51;11.90;99.90
23471;DHT22;11908;50.806;4.424;2023-03-13T02:21:58;11.90;99.90
23471;DHT22;11908;50.806;4.424;2023-03-13T02:27:26;12.10;99.90
23471;DHT22;11908;50.806;4.424;2023-03-13T02:29:52;12.10;99.90
23471;DHT22;11908;50.806;4.424;2023-03-13T02:32:18;12.20;99.90
23471;DHT22;11908;50.806;4.424;2023-03-13T02:34:45;12.20;99.90
23471;DHT22;11908;50.806;4.424;2023-03-13T02:37:13;12.20;99.90
23471;DHT22;11908;50.806;4.424;2023-03-13T02:39:46;12.30;99.90
23471;DHT22;11908;50.806;4.424;2023-03-13T02:42:13;12.20;99.90
23471;DHT22;11908;50.806;4.424;2023-03-13T02:44:40;12.30;99.90
23471;DHT22;11908;50.806;4.424;2023-03-13T02:47:06;12.30;99.90
23471;DHT22;11908;50.806;4.424;2023-03-13T02:49:34;12.30;99.90
23471;DHT22;11908;50.806;4.424;2023-03-13T02:52:30;12.40;99.90
23471;DHT22;11908;50.806;4.424;2023-03-13T02:55:00;12.40;99.90
23471;DHT22;11908;50.806;4.424;2023-03-13T02:57:27;12.40;99.90
23471;DHT22;11908;50.806;4.424;2023-03-13T02:59:53;12.50;99.90
23471;DHT22;11908;50.806;4.424;2023-03-13T03:02:19;12.60;99.90
23471;DHT22;11908;50.806;4.424;2023-03-13T03:04:45;12.60;99.90
23471;DHT22;11908;50.806;4.424;2023-03-13T03:07:11;12.60;99.90
23471;DHT22;11908;50.806;4.424;2023-03-13T03:09:36;12.60;99.90
23471;DHT22;11908;50.806;4.424;2023-03-13T03:12:02;12.60;99.90
23471;DHT22;11908;50.806;4.424;2023-03-13T03:14:28;12.70;99.90
23471;DHT22;11908;50.806;4.424;2023-03-13T03:16:54;12.70;99.90
23471;DHT22;11908;50.806;4.424;2023-03-13T03:19:20;12.70;99.90
23471;DHT22;11908;50.806;4.424;2023-03-13T03:21:45;12.70;99.90
23471;DHT22;11908;50.806;4.424;2023-03-13T03:24:14;12.80;99.90
23471;DHT22;11908;50.806;4.424;2023-03-13T03:26:39;12.80;99.90
23471;DHT22;11908;50.806;4.424;2023-03-13T03:29:05;12.80;99.90
23471;DHT22;11908;50.806;4.424;2023-03-13T03:31:32;12.90;99.90
23471;DHT22;11908;50.806;4.424;2023-03-13T03:33:58;12.90;99.90
23471;DHT22;11908;50.806;4.424;2023-03-13T03:36:25;12.80;99.90
23471;DHT22;11908;50.806;4.424;2023-03-13T03:38:51;12.90;99.90
23471;DHT22;11908;50.806;4.424;2023-03-13T03:41:17;12.90;99.90
23471;DHT22;11908;50.806;4.424;2023-03-13T03:43:44;12.90;99.90
23471;DHT22;11908;50.806;4.424;2023-03-13T03:46:10;12.90;99.90
23471;DHT22;11908;50.806;4.424;2023-03-13T03:48:36;12.80;99.90
23471;DHT22;11908;50.806;4.424;2023-03-13T03:51:02;12.90;99.90
23471;DHT22;11908;50.806;4.424;2023-03-13T03:53:28;12.90;99.90
23471;DHT22;11908;50.806;4.424;2023-03-13T03:55:54;12.90;99.90
23471;DHT22;11908;50.806;4.424;2023-03-13T03:58:20;12.80;99.90
23471;DHT22;11908;50.806;4.424;2023-03-13T04:00:46;12.90;99.90
23471;DHT22;11908;50.806;4.424;2023-03-13T04:03:13;13.00;99.90
23471;DHT22;11908;50.806;4.424;2023-03-13T04:05:39;13.00;99.90
23471;DHT22;11908;50.806;4.424;2023-03-13T04:08:06;13.00;99.90
23471;DHT22;11908;50.806;4.424;2023-03-13T04:10:32;13.00;99.90
23471;DHT22;11908;50.806;4.424;2023-03-13T04:12:57;13.10;99.90
23471;DHT22;11908;50.806;4.424;2023-03-13T04:15:23;13.10;99.90
23471;DHT22;11908;50.806;4.424;2023-03-13T04:17:49;13.10;99.90
23471;DHT22;11908;50.806;4.424;2023-03-13T04:20:15;13.20;99.90
23471;DHT22;11908;50.806;4.424;2023-03-13T04:22:41;13.20;99.90
23471;DHT22;11908;50.806;4.424;2023-03-13T04:25:07;13.10;99.90
23471;DHT22;11908;50.806;4.424;2023-03-13T04:27:33;13.10;99.90
23471;DHT22;11908;50.806;4.424;2023-03-13T04:29:59;13.20;99.90
23471;DHT22;11908;50.806;4.424;2023-03-13T04:32:25;13.20;99.90
23471;DHT22;11908;50.806;4.424;2023-03-13T04:34:51;13.30;99.90
23471;DHT22;11908;50.806;4.424;2023-03-13T04:37:17;13.20;99.90
23471;DHT22;11908;50.806;4.424;2023-03-13T04:39:43;13.20;99.90
23471;DHT22;11908;50.806;4.424;2023-03-13T04:42:10;13.20;99.90
23471;DHT22;11908;50.806;4.424;2023-03-13T04:44:36;13.20;99.90
23471;DHT22;11908;50.806;4.424;2023-03-13T04:47:02;13.20;99.90
23471;DHT22;11908;50.806;4.424;2023-03-13T04:49:28;13.20;99.90
23471;DHT22;11908;50.806;4.424;2023-03-13T04:51:53;13.20;99.90
23471;DHT22;11908;50.806;4.424;2023-03-13T04:54:19;13.30;99.90
23471;DHT22;11908;50.806;4.424;2023-03-13T04:56:45;13.30;99.90
23471;DHT22;11908;50.806;4.424;2023-03-13T04:59:12;13.30;99.90
23471;DHT22;11908;50.806;4.424;2023-03-13T05:01:38;13.30;99.90
23471;DHT22;11908;50.806;4.424;2023-03-13T05:04:04;13.30;99.90
23471;DHT22;11908;50.806;4.424;2023-03-13T05:06:30;13.30;99.90
23471;DHT22;11908;50.806;4.424;2023-03-13T05:08:55;13.30;99.90
23471;DHT22;11908;50.806;4.424;2023-03-13T05:11:21;13.30;99.90
23471;DHT22;11908;50.806;4.424;2023-03-13T05:13:47;13.30;99.90
23471;DHT22;11908;50.806;4.424;2023-03-13T05:16:13;13.30;99.90
23471;DHT22;11908;50.806;4.424;2023-03-13T05:18:39;13.30;99.90
23471;DHT22;11908;50.806;4.424;2023-03-13T05:21:05;13.30;99.90
23471;DHT22;11908;50.806;4.424;2023-03-13T05:23:31;13.30;99.90
23471;DHT22;11908;50.806;4.424;2023-03-13T05:25:57;13.30;99.90
23471;DHT22;11908;50.806;4.424;2023-03-13T05:28:22;13.30;99.90
23471;DHT22;11908;50.806;4.424;2023-03-13T05:30:48;13.40;99.90
23471;DHT22;11908;50.806;4.424;2023-03-13T05:33:14;13.40;99.90
23471;DHT22;11908;50.806;4.424;2023-03-13T05:35:39;13.40;99.90
23471;DHT22;11908;50.806;4.424;2023-03-13T05:38:05;13.40;99.90
23471;DHT22;11908;50.806;4.424;2023-03-13T05:40:31;13.40;99.90
23471;DHT22;11908;50.806;4.424;2023-03-13T05:42:56;13.40;99.90
23471;DHT22;11908;50.806;4.424;2023-03-13T05:45:22;13.40;99.90
23471;DHT22;11908;50.806;4.424;2023-03-13T05:47:48;13.40;99.90
23471;DHT22;11908;50.806;4.424;2023-03-13T05:50:13;13.40;99.90
23471;DHT22;11908;50.806;4.424;2023-03-13T05:52:39;13.40;99.90
23471;DHT22;11908;50.806;4.424;2023-03-13T05:55:05;13.40;99.90
23471;DHT22;11908;50.806;4.424;2023-03-13T05:57:31;13.40;99.90
23471;DHT22;11908;50.806;4.424;2023-03-13T05:59:57;13.40;99.90
23471;DHT22;11908;50.806;4.424;2023-03-13T06:02:24;13.40;99.90
23471;DHT22;11908;50.806;4.424;2023-03-13T06:04:49;13.50;99.90
23471;DHT22;11908;50.806;4.424;2023-03-13T06:07:15;13.50;99.90
23471;DHT22;11908;50.806;4.424;2023-03-13T06:09:41;13.50;99.90
23471;DHT22;11908;50.806;4.424;2023-03-13T06:12:10;13.50;99.90
23471;DHT22;11908;50.806;4.424;2023-03-13T06:14:36;13.50;99.90
23471;DHT22;11908;50.806;4.424;2023-03-13T06:17:05;13.50;99.90
23471;DHT22;11908;50.806;4.424;2023-03-13T06:19:31;13.50;99.90
23471;DHT22;11908;50.806;4.424;2023-03-13T06:21:57;13.40;99.90
23471;DHT22;11908;50.806;4.424;2023-03-13T06:24:22;13.50;99.90
23471;DHT22;11908;50.806;4.424;2023-03-13T06:26:49;13.50;99.90
23471;DHT22;11908;50.806;4.424;2023-03-13T06:29:15;13.50;99.90
23471;DHT22;11908;50.806;4.424;2023-03-13T06:31:41;13.50;99.90
23471;DHT22;11908;50.806;4.424;2023-03-13T06:34:09;13.50;99.90
23471;DHT22;11908;50.806;4.424;2023-03-13T06:36:35;13.50;99.90
23471;DHT22;11908;50.806;4.424;2023-03-13T06:39:01;13.50;99.90
23471;DHT22;11908;50.806;4.424;2023-03-13T06:41:27;13.50;99.90
23471;DHT22;11908;50.806;4.424;2023-03-13T06:43:53;13.50;99.90
23471;DHT22;11908;50.806;4.424;2023-03-13T06:46:21;13.60;99.90
23471;DHT22;11908;50.806;4.424;2023-03-13T06:48:47;13.60;99.90
23471;DHT22;11908;50.806;4.424;2023-03-13T06:51:14;13.50;99.90
23471;DHT22;11908;50.806;4.424;2023-03-13T06:53:41;13.60;99.90
23471;DHT22;11908;50.806;4.424;2023-03-13T06:56:07;13.60;99.90
23471;DHT22;11908;50.806;4.424;2023-03-13T06:58:33;13.60;99.90
23471;DHT22;11908;50.806;4.424;2023-03-13T07:01:09;13.60;99.90
23471;DHT22;11908;50.806;4.424;2023-03-13T07:03:36;13.70;99.90
23471;DHT22;11908;50.806;4.424;2023-03-13T07:06:03;13.80;99.90
23471;DHT22;11908;50.806;4.424;2023-03-13T07:08:30;13.70;99.90
23471;DHT22;11908;50.806;4.424;2023-03-13T07:11:01;13.80;99.90
23471;DHT22;11908;50.806;4.424;2023-03-13T07:13:27;13.80;99.90
23471;DHT22;11908;50.806;4.424;2023-03-13T07:15:53;13.90;99.90
23471;DHT22;11908;50.806;4.424;2023-03-13T07:18:20;14.00;99.90
23471;DHT22;11908;50.806;4.424;2023-03-13T07:20:54;14.00;99.90
23471;DHT22;11908;50.806;4.424;2023-03-13T07:23:21;14.00;99.90
23471;DHT22;11908;50.806;4.424;2023-03-13T07:25:58;14.00;99.90
23471;DHT22;11908;50.806;4.424;2023-03-13T07:28:25;14.00;99.90
23471;DHT22;11908;50.806;4.424;2023-03-13T07:30:51;14.00;99.90
23471;DHT22;11908;50.806;4.424;2023-03-13T07:33:16;14.00;99.90
23471;DHT22;11908;50.806;4.424;2023-03-13T07:35:50;14.00;99.90
23471;DHT22;11908;50.806;4.424;2023-03-13T07:38:16;14.00;99.90
23471;DHT22;11908;50.806;4.424;2023-03-13T07:40:53;14.00;99.90
23471;DHT22;11908;50.806;4.424;2023-03-13T07:43:18;14.00;99.90
23471;DHT22;11908;50.806;4.424;2023-03-13T07:45:55;14.00;99.90
23471;DHT22;11908;50.806;4.424;2023-03-13T07:48:23;14.10;99.90
23471;DHT22;11908;50.806;4.424;2023-03-13T07:50:49;14.10;99.90
23471;DHT22;11908;50.806;4.424;2023-03-13T07:53:15;14.00;99.90
23471;DHT22;11908;50.806;4.424;2023-03-13T07:56:02;14.00;99.90
23471;DHT22;11908;50.806;4.424;2023-03-13T07:58:30;13.90;99.90
23471;DHT22;11908;50.806;4.424;2023-03-13T08:00:56;13.90;99.90
23471;DHT22;11908;50.806;4.424;2023-03-13T08:03:22;13.90;99.90
23471;DHT22;11908;50.806;4.424;2023-03-13T08:06:03;13.80;99.90
23471;DHT22;11908;50.806;4.424;2023-03-13T08:08:30;13.80;99.90
23471;DHT22;11908;50.806;4.424;2023-03-13T08:11:03;13.90;99.90
23471;DHT22;11908;50.806;4.424;2023-03-13T08:13:29;13.90;99.90
23471;DHT22;11908;50.806;4.424;2023-03-13T08:16:06;13.90;99.90
23471;DHT22;11908;50.806;4.424;2023-03-13T08:18:34;14.10;99.90
23471;DHT22;11908;50.806;4.424;2023-03-13T08:21:01;14.20;99.90
23471;DHT22;11908;50.806;4.424;2023-03-13T08:23:27;14.40;99.90
23471;DHT22;11908;50.806;4.424;2023-03-13T08:25:53;14.50;99.90
23471;DHT22;11908;50.806;4.424;2023-03-13T08:28:18;14.70;99.90
23471;DHT22;11908;50.806;4.424;2023-03-13T08:30:44;14.70;99.90
23471;DHT22;11908;50.806;4.424;2023-03-13T08:33:10;14.80;99.90
23471;DHT22;11908;50.806;4.424;2023-03-13T08:35:35;14.90;99.90
23471;DHT22;11908;50.806;4.424;2023-03-13T08:38:01;14.90;99.90
23471;DHT22;11908;50.806;4.424;2023-03-13T08:40:27;14.80;99.90
23471;DHT22;11908;50.806;4.424;2023-03-13T08:42:53;14.70;99.90
23471;DHT22;11908;50.806;4.424;2023-03-13T08:45:19;14.80;99.90
23471;DHT22;11908;50.806;4.424;2023-03-13T08:47:44;14.80;99.90
23471;DHT22;11908;50.806;4.424;2023-03-13T08:50:10;14.90;99.90
23471;DHT22;11908;50.806;4.424;2023-03-13T08:52:36;14.90;99.90
23471;DHT22;11908;50.806;4.424;2023-03-13T08:55:01;14.90;99.90
23471;DHT22;11908;50.806;4.424;2023-03-13T08:57:27;15.30;99.90
23471;DHT22;11908;50.806;4.424;2023-03-13T08:59:53;15.50;99.90
23471;DHT22;11908;50.806;4.424;2023-03-13T09:02:18;15.40;99.90
23471;DHT22;11908;50.806;4.424;2023-03-13T09:04:46;15.20;99.90
23471;DHT22;11908;50.806;4.424;2023-03-13T09:07:12;15.20;99.90
23471;DHT22;11908;50.806;4.424;2023-03-13T09:09:38;15.10;99.90
23471;DHT22;11908;50.806;4.424;2023-03-13T09:12:04;15.10;99.90
23471;DHT22;11908;50.806;4.424;2023-03-13T09:14:30;15.20;99.90
23471;DHT22;11908;50.806;4.424;2023-03-13T09:16:55;15.30;99.90
23471;DHT22;11908;50.806;4.424;2023-03-13T09:19:22;15.30;99.90
23471;DHT22;11908;50.806;4.424;2023-03-13T09:21:47;15.50;99.90
23471;DHT22;11908;50.806;4.424;2023-03-13T09:24:14;15.70;99.90
23471;DHT22;11908;50.806;4.424;2023-03-13T09:26:40;15.70;99.90
23471;DHT22;11908;50.806;4.424;2023-03-13T09:29:06;15.70;99.90
23471;DHT22;11908;50.806;4.424;2023-03-13T09:31:32;15.70;99.90
23471;DHT22;11908;50.806;4.424;2023-03-13T09:33:58;15.60;99.90
23471;DHT22;11908;50.806;4.424;2023-03-13T09:36:25;15.80;99.90
23471;DHT22;11908;50.806;4.424;2023-03-13T09:38:53;15.80;99.90
23471;DHT22;11908;50.806;4.424;2023-03-13T09:41:23;16.00;99.90
23471;DHT22;11908;50.806;4.424;2023-03-13T09:44:24;16.20;99.90
23471;DHT22;11908;50.806;4.424;2023-03-13T09:47:04;16.00;99.90
23471;DHT22;11908;50.806;4.424;2023-03-13T09:49:43;15.90;99.90
23471;DHT22;11908;50.806;4.424;2023-03-13T09:52:23;15.90;99.90
23471;DHT22;11908;50.806;4.424;2023-03-13T09:59:57;16.10;99.90
23471;DHT22;11908;50.806;4.424;2023-03-13T10:02:31;16.10;99.90
23471;DHT22;11908;50.806;4.424;2023-03-13T10:05:23;16.20;99.90
23471;DHT22;11908;50.806;4.424;2023-03-13T10:07:49;16.40;99.90
23471;DHT22;11908;50.806;4.424;2023-03-13T10:10:24;16.60;99.90
23471;DHT22;11908;50.806;4.424;2023-03-13T10:12:57;16.70;99.90
23471;DHT22;11908;50.806;4.424;2023-03-13T10:16:05;16.80;99.90
23471;DHT22;11908;50.806;4.424;2023-03-13T10:18:24;17.40;99.90
23471;DHT22;11908;50.806;4.424;2023-03-13T10:20:52;18.40;99.90
23471;DHT22;11908;50.806;4.424;2023-03-13T10:25:47;17.40;99.90
23471;DHT22;11908;50.806;4.424;2023-03-13T10:28:15;17.10;99.90
23471;DHT22;11908;50.806;4.424;2023-03-13T10:30:46;16.90;99.90
23471;DHT22;11908;50.806;4.424;2023-03-13T10:35:43;16.60;99.90
23471;DHT22;11908;50.806;4.424;2023-03-13T10:38:18;16.40;99.90
23471;DHT22;11908;50.806;4.424;2023-03-13T10:40:59;16.40;99.90
23471;DHT22;11908;50.806;4.424;2023-03-13T10:43:26;16.50;99.90
23471;DHT22;11908;50.806;4.424;2023-03-13T10:45:52;16.90;99.90
23471;DHT22;11908;50.806;4.424;2023-03-13T10:48:22;17.30;99.90
23471;DHT22;11908;50.806;4.424;2023-03-13T10:50:51;17.70;99.90
23471;DHT22;11908;50.806;4.424;2023-03-13T10:56:12;17.70;99.90
23471;DHT22;11908;50.806;4.424;2023-03-13T10:58:49;17.70;99.90
23471;DHT22;11908;50.806;4.424;2023-03-13T11:01:26;18.50;99.90
23471;DHT22;11908;50.806;4.424;2023-03-13T11:04:27;19.00;99.90
23471;DHT22;11908;50.806;4.424;2023-03-13T11:07:01;18.70;99.90
23471;DHT22;11908;50.806;4.424;2023-03-13T11:09:27;18.90;99.90
23471;DHT22;11908;50.806;4.424;2023-03-13T11:11:55;19.20;99.90
23471;DHT22;11908;50.806;4.424;2023-03-13T11:14:23;18.90;99.90
23471;DHT22;11908;50.806;4.424;2023-03-13T11:17:43;18.60;99.90
23471;DHT22;11908;50.806;4.424;2023-03-13T11:22:39;18.10;99.90
23471;DHT22;11908;50.806;4.424;2023-03-13T11:27:51;19.00;99.90
23471;DHT22;11908;50.806;4.424;2023-03-13T11:30:43;19.60;99.90
23471;DHT22;11908;50.806;4.424;2023-03-13T11:33:35;19.10;99.90
23471;DHT22;11908;50.806;4.424;2023-03-13T11:36:28;18.90;99.90
23471;DHT22;11908;50.806;4.424;2023-03-13T11:42:05;19.30;99.90
23471;DHT22;11908;50.806;4.424;2023-03-13T11:44:56;18.90;99.90
23471;DHT22;11908;50.806;4.424;2023-03-13T11:50:53;18.10;99.90
23471;DHT22;11908;50.806;4.424;2023-03-13T11:55:49;18.50;99.90
23471;DHT22;11908;50.806;4.424;2023-03-13T11:58:59;18.40;99.90
23471;DHT22;11908;50.806;4.424;2023-03-13T12:01:36;18.40;99.90
23471;DHT22;11908;50.806;4.424;2023-03-13T12:04:14;18.80;99.90
23471;DHT22;11908;50.806;4.424;2023-03-13T12:06:57;19.10;99.90
23471;DHT22;11908;50.806;4.424;2023-03-13T12:09:39;19.00;99.90
23471;DHT22;11908;50.806;4.424;2023-03-13T12:12:48;18.90;99.90
23471;DHT22;11908;50.806;4.424;2023-03-13T12:15:42;18.60;99.90
23471;DHT22;11908;50.806;4.424;2023-03-13T12:20:43;18.30;99.90
23471;DHT22;11908;50.806;4.424;2023-03-13T12:26:16;18.60;99.90
23471;DHT22;11908;50.806;4.424;2023-03-13T12:31:56;18.50;99.90
23471;DHT22;11908;50.806;4.424;2023-03-13T12:34:35;18.60;99.90
23471;DHT22;11908;50.806;4.424;2023-03-13T12:37:57;18.80;99.90
23471;DHT22;11908;50.806;4.424;2023-03-13T12:40:37;18.90;99.90
23471;DHT22;11908;50.806;4.424;2023-03-13T12:45:31;18.80;99.90
23471;DHT22;11908;50.806;4.424;2023-03-13T12:50:54;18.30;99.90
23471;DHT22;11908;50.806;4.424;2023-03-13T13:03:59;18.00;99.90
23471;DHT22;11908;50.806;4.424;2023-03-13T13:06:27;18.00;99.90
23471;DHT22;11908;50.806;4.424;2023-03-13T13:09:01;17.90;99.90
23471;DHT22;11908;50.806;4.424;2023-03-13T13:11:34;17.70;99.90
23471;DHT22;11908;50.806;4.424;2023-03-13T13:14:01;17.50;99.90
23471;DHT22;11908;50.806;4.424;2023-03-13T13:16:27;17.80;99.90
23471;DHT22;11908;50.806;4.424;2023-03-13T13:18:54;18.10;99.90
23471;DHT22;11908;50.806;4.424;2023-03-13T13:21:22;18.00;99.90
23471;DHT22;11908;50.806;4.424;2023-03-13T13:23:52;18.00;99.90
23471;DHT22;11908;50.806;4.424;2023-03-13T13:39:44;17.60;99.90
23471;DHT22;11908;50.806;4.424;2023-03-13T13:47:40;17.40;99.90
23471;DHT22;11908;50.806;4.424;2023-03-13T13:50:21;17.40;99.90
23471;DHT22;11908;50.806;4.424;2023-03-13T13:52:48;17.40;99.90
23471;DHT22;11908;50.806;4.424;2023-03-13T13:58:04;18.00;99.90
23471;DHT22;11908;50.806;4.424;2023-03-13T14:03:29;18.10;99.90
23471;DHT22;11908;50.806;4.424;2023-03-13T14:06:14;17.90;99.90
23471;DHT22;11908;50.806;4.424;2023-03-13T14:08:42;17.80;99.90
23471;DHT22;11908;50.806;4.424;2023-03-13T14:16:37;17.30;99.90
23471;DHT22;11908;50.806;4.424;2023-03-13T14:19:03;17.40;99.90
23471;DHT22;11908;50.806;4.424;2023-03-13T14:21:28;17.40;99.90
23471;DHT22;11908;50.806;4.424;2023-03-13T14:23:54;17.30;99.90
23471;DHT22;11908;50.806;4.424;2023-03-13T14:26:22;17.20;99.90
23471;DHT22;11908;50.806;4.424;2023-03-13T14:29:02;17.40;99.90
23471;DHT22;11908;50.806;4.424;2023-03-13T14:31:30;17.60;99.90
23471;DHT22;11908;50.806;4.424;2023-03-13T14:33:58;17.50;99.90
23471;DHT22;11908;50.806;4.424;2023-03-13T14:36:24;17.40;99.90
23471;DHT22;11908;50.806;4.424;2023-03-13T14:38:57;17.40;99.90
23471;DHT22;11908;50.806;4.424;2023-03-13T14:41:26;17.40;99.90
23471;DHT22;11908;50.806;4.424;2023-03-13T14:43:53;17.40;99.90
23471;DHT22;11908;50.806;4.424;2023-03-13T14:46:26;17.50;99.90
23471;DHT22;11908;50.806;4.424;2023-03-13T14:48:54;17.50;99.90
23471;DHT22;11908;50.806;4.424;2023-03-13T14:51:29;17.30;99.90
23471;DHT22;11908;50.806;4.424;2023-03-13T14:54:00;17.20;99.90
23471;DHT22;11908;50.806;4.424;2023-03-13T14:56:38;17.20;99.90
23471;DHT22;11908;50.806;4.424;2023-03-13T14:59:17;17.10;99.90
23471;DHT22;11908;50.806;4.424;2023-03-13T15:01:44;17.20;99.90
23471;DHT22;11908;50.806;4.424;2023-03-13T15:04:10;17.30;99.90
23471;DHT22;11908;50.806;4.424;2023-03-13T15:06:36;17.20;99.90
23471;DHT22;11908;50.806;4.424;2023-03-13T15:09:20;17.20;99.90
23471;DHT22;11908;50.806;4.424;2023-03-13T15:11:59;17.30;99.90
23471;DHT22;11908;50.806;4.424;2023-03-13T15:17:01;17.30;99.90
23471;DHT22;11908;50.806;4.424;2023-03-13T15:19:29;17.20;99.90
23471;DHT22;11908;50.806;4.424;2023-03-13T15:21:55;17.10;99.90
23471;DHT22;11908;50.806;4.424;2023-03-13T15:24:21;17.10;99.90
23471;DHT22;11908;50.806;4.424;2023-03-13T15:26:47;17.10;99.90
23471;DHT22;11908;50.806;4.424;2023-03-13T15:29:13;17.10;99.90
23471;DHT22;11908;50.806;4.424;2023-03-13T15:31:38;17.20;99.90
23471;DHT22;11908;50.806;4.424;2023-03-13T15:34:08;17.10;99.90
23471;DHT22;11908;50.806;4.424;2023-03-13T15:36:35;17.20;99.90
23471;DHT22;11908;50.806;4.424;2023-03-13T15:39:01;17.10;99.90
23471;DHT22;11908;50.806;4.424;2023-03-13T15:41:28;17.00;99.90
23471;DHT22;11908;50.806;4.424;2023-03-13T15:43:54;17.00;99.90
23471;DHT22;11908;50.806;4.424;2023-03-13T15:46:23;17.00;99.90
23471;DHT22;11908;50.806;4.424;2023-03-13T15:48:49;16.90;99.90
23471;DHT22;11908;50.806;4.424;2023-03-13T15:51:16;16.90;99.90
23471;DHT22;11908;50.806;4.424;2023-03-13T15:53:42;16.90;99.90
23471;DHT22;11908;50.806;4.424;2023-03-13T15:56:19;16.90;99.90
23471;DHT22;11908;50.806;4.424;2023-03-13T15:58:46;16.80;99.90
23471;DHT22;11908;50.806;4.424;2023-03-13T16:01:14;16.80;99.90
23471;DHT22;11908;50.806;4.424;2023-03-13T16:03:40;16.70;99.90
23471;DHT22;11908;50.806;4.424;2023-03-13T16:06:20;16.80;99.90
23471;DHT22;11908;50.806;4.424;2023-03-13T16:08:55;16.70;99.90
23471;DHT22;11908;50.806;4.424;2023-03-13T16:11:20;16.60;99.90
23471;DHT22;11908;50.806;4.424;2023-03-13T16:13:47;16.50;99.90
23471;DHT22;11908;50.806;4.424;2023-03-13T16:16:19;16.40;99.90
23471;DHT22;11908;50.806;4.424;2023-03-13T16:18:46;16.30;99.90
23471;DHT22;11908;50.806;4.424;2023-03-13T16:21:27;16.30;99.90
23471;DHT22;11908;50.806;4.424;2023-03-13T16:23:53;16.40;99.90
23471;DHT22;11908;50.806;4.424;2023-03-13T16:26:22;16.50;99.90
23471;DHT22;11908;50.806;4.424;2023-03-13T16:28:49;16.50;99.90
23471;DHT22;11908;50.806;4.424;2023-03-13T16:31:21;16.50;99.90
23471;DHT22;11908;50.806;4.424;2023-03-13T16:33:48;16.40;99.90
23471;DHT22;11908;50.806;4.424;2023-03-13T16:36:16;16.30;99.90
23471;DHT22;11908;50.806;4.424;2023-03-13T16:38:43;16.20;99.90
23471;DHT22;11908;50.806;4.424;2023-03-13T16:41:15;16.20;99.90
23471;DHT22;11908;50.806;4.424;2023-03-13T16:43:42;16.10;99.90
23471;DHT22;11908;50.806;4.424;2023-03-13T16:46:22;16.10;99.90
23471;DHT22;11908;50.806;4.424;2023-03-13T16:48:49;16.10;99.90
23471;DHT22;11908;50.806;4.424;2023-03-13T16:51:20;16.00;99.90
23471;DHT22;11908;50.806;4.424;2023-03-13T16:53:48;16.00;99.90
23471;DHT22;11908;50.806;4.424;2023-03-13T16:56:20;15.90;99.90
23471;DHT22;11908;50.806;4.424;2023-03-13T16:58:46;15.80;99.90
23471;DHT22;11908;50.806;4.424;2023-03-13T17:01:12;15.90;99.90
23471;DHT22;11908;50.806;4.424;2023-03-13T17:03:38;15.80;99.90
23471;DHT22;11908;50.806;4.424;2023-03-13T17:06:04;15.80;99.90
23471;DHT22;11908;50.806;4.424;2023-03-13T17:08:29;15.80;99.90
23471;DHT22;11908;50.806;4.424;2023-03-13T17:10:55;15.80;99.90
23471;DHT22;11908;50.806;4.424;2023-03-13T17:13:21;15.80;99.90
23471;DHT22;11908;50.806;4.424;2023-03-13T17:15:48;15.70;99.90
23471;DHT22;11908;50.806;4.424;2023-03-13T17:18:14;15.70;99.90
23471;DHT22;11908;50.806;4.424;2023-03-13T17:20:40;15.70;99.90
23471;DHT22;11908;50.806;4.424;2023-03-13T17:23:06;15.80;99.90